sensor_id;sensor_type;location;lat;lon;timestamp;pressure;altitude;pressure_sealevel;temperature;humidity
52591;BME280;38483;42.620;25.394;2024-02-21T00:01:17;97639.56;;;4.96;93.37
52591;BME280;38483;42.620;25.394;2024-02-21T00:04:37;97644.84;;;4.84;95.33
52591;BME280;38483;42.620;25.394;2024-02-21T00:08:02;97638.91;;;4.80;94.95
52591;BME280;38483;42.620;25.394;2024-02-21T00:11:21;97633.94;;;4.68;95.41
52591;BME280;38483;42.620;25.394;2024-02-21T00:14:42;97628.88;;;4.65;96.69
52591;BME280;38483;42.620;25.394;2024-02-21T00:18:03;97617.72;;;4.66;97.45
52591;BME280;38483;42.620;25.394;2024-02-21T00:21:24;97629.28;;;4.96;97.50
52591;BME280;38483;42.620;25.394;2024-02-21T00:24:44;97622.09;;;5.19;96.25
52591;BME280;38483;42.620;25.394;2024-02-21T00:28:05;97634.84;;;5.24;95.73
52591;BME280;38483;42.620;25.394;2024-02-21T00:31:26;97635.59;;;5.30;93.96
52591;BME280;38483;42.620;25.394;2024-02-21T00:34:46;97640.31;;;5.03;94.92
52591;BME280;38483;42.620;25.394;2024-02-21T00:38:07;97638.56;;;5.05;94.64
52591;BME280;38483;42.620;25.394;2024-02-21T00:41:28;97639.13;;;5.25;94.60
52591;BME280;38483;42.620;25.394;2024-02-21T00:44:48;97634.00;;;5.23;94.25
52591;BME280;38483;42.620;25.394;2024-02-21T00:48:09;97633.91;;;5.28;94.01
52591;BME280;38483;42.620;25.394;2024-02-21T00:51:30;97638.06;;;5.38;94.62
52591;BME280;38483;42.620;25.394;2024-02-21T00:54:51;97635.47;;;5.39;94.11
52591;BME280;38483;42.620;25.394;2024-02-21T00:58:11;97630.06;;;5.01;94.67
52591;BME280;38483;42.620;25.394;2024-02-21T01:01:32;97615.13;;;4.69;97.29
52591;BME280;38483;42.620;25.394;2024-02-21T01:04:53;97616.88;;;4.67;96.63
52591;BME280;38483;42.620;25.394;2024-02-21T01:08:13;97609.22;;;4.63;97.13
52591;BME280;38483;42.620;25.394;2024-02-21T01:11:34;97605.94;;;4.52;97.25
52591;BME280;38483;42.620;25.394;2024-02-21T01:14:55;97601.66;;;4.52;97.81
52591;BME280;38483;42.620;25.394;2024-02-21T01:18:15;97608.31;;;4.67;98.19
52591;BME280;38483;42.620;25.394;2024-02-21T01:21:36;97611.47;;;4.85;97.32
52591;BME280;38483;42.620;25.394;2024-02-21T01:24:57;97614.75;;;4.97;96.29
52591;BME280;38483;42.620;25.394;2024-02-21T01:28:18;97610.38;;;5.02;94.97
52591;BME280;38483;42.620;25.394;2024-02-21T01:31:38;97612.16;;;4.98;94.91
52591;BME280;38483;42.620;25.394;2024-02-21T01:34:59;97611.06;;;5.13;94.71
52591;BME280;38483;42.620;25.394;2024-02-21T01:38:19;97605.06;;;5.15;93.53
52591;BME280;38483;42.620;25.394;2024-02-21T01:41:40;97602.69;;;5.02;93.61
52591;BME280;38483;42.620;25.394;2024-02-21T01:45:01;97603.31;;;5.16;93.13
52591;BME280;38483;42.620;25.394;2024-02-21T01:48:22;97605.94;;;5.13;94.17
52591;BME280;38483;42.620;25.394;2024-02-21T01:51:42;97613.63;;;5.13;93.41
52591;BME280;38483;42.620;25.394;2024-02-21T01:55:04;97616.44;;;4.96;94.83
52591;BME280;38483;42.620;25.394;2024-02-21T01:58:24;97612.91;;;5.05;94.75
52591;BME280;38483;42.620;25.394;2024-02-21T02:01:44;97609.94;;;4.72;95.29
52591;BME280;38483;42.620;25.394;2024-02-21T02:05:06;97601.66;;;4.52;95.67
52591;BME280;38483;42.620;25.394;2024-02-21T02:08:27;97593.94;;;4.54;96.54
52591;BME280;38483;42.620;25.394;2024-02-21T02:11:48;97598.09;;;4.62;96.58
52591;BME280;38483;42.620;25.394;2024-02-21T02:15:08;97601.47;;;4.66;96.17
52591;BME280;38483;42.620;25.394;2024-02-21T02:18:29;97602.72;;;4.38;97.32
52591;BME280;38483;42.620;25.394;2024-02-21T02:21:50;97593.47;;;4.26;99.05
52591;BME280;38483;42.620;25.394;2024-02-21T02:25:11;97588.03;;;4.47;99.20
52591;BME280;38483;42.620;25.394;2024-02-21T02:28:31;97587.72;;;4.70;97.99
52591;BME280;38483;42.620;25.394;2024-02-21T02:31:52;97594.69;;;4.63;96.69
52591;BME280;38483;42.620;25.394;2024-02-21T02:35:13;97590.56;;;4.53;97.98
52591;BME280;38483;42.620;25.394;2024-02-21T02:38:35;97593.81;;;4.64;98.25
52591;BME280;38483;42.620;25.394;2024-02-21T02:41:56;97592.81;;;4.74;98.33
52591;BME280;38483;42.620;25.394;2024-02-21T02:45:17;97599.81;;;4.63;98.40
52591;BME280;38483;42.620;25.394;2024-02-21T02:48:37;97597.03;;;4.78;98.42
52591;BME280;38483;42.620;25.394;2024-02-21T02:51:58;97602.16;;;4.78;97.46
52591;BME280;38483;42.620;25.394;2024-02-21T02:55:19;97603.25;;;4.62;97.44
52591;BME280;38483;42.620;25.394;2024-02-21T02:58:39;97598.09;;;4.65;97.54
52591;BME280;38483;42.620;25.394;2024-02-21T03:02:00;97602.25;;;4.72;97.22
52591;BME280;38483;42.620;25.394;2024-02-21T03:05:21;97601.47;;;4.67;97.76
52591;BME280;38483;42.620;25.394;2024-02-21T03:08:41;97607.50;;;4.63;97.33
52591;BME280;38483;42.620;25.394;2024-02-21T03:12:02;97604.88;;;4.66;97.96
52591;BME280;38483;42.620;25.394;2024-02-21T03:15:28;97593.91;;;4.57;97.90
52591;BME280;38483;42.620;25.394;2024-02-21T03:18:49;97607.44;;;4.69;97.73
52591;BME280;38483;42.620;25.394;2024-02-21T03:22:09;97610.78;;;4.73;97.06
52591;BME280;38483;42.620;25.394;2024-02-21T03:25:30;97605.22;;;4.42;98.97
52591;BME280;38483;42.620;25.394;2024-02-21T03:28:50;97603.72;;;4.26;99.97
52591;BME280;38483;42.620;25.394;2024-02-21T03:32:11;97607.72;;;4.45;100.00
52591;BME280;38483;42.620;25.394;2024-02-21T03:35:32;97601.66;;;4.55;99.75
52591;BME280;38483;42.620;25.394;2024-02-21T03:38:54;97604.94;;;4.65;98.31
52591;BME280;38483;42.620;25.394;2024-02-21T03:42:13;97605.72;;;4.68;98.47
52591;BME280;38483;42.620;25.394;2024-02-21T03:45:34;97606.78;;;4.52;98.45
52591;BME280;38483;42.620;25.394;2024-02-21T03:48:54;97598.09;;;4.65;98.56
52591;BME280;38483;42.620;25.394;2024-02-21T03:52:15;97598.09;;;4.65;97.89
52591;BME280;38483;42.620;25.394;2024-02-21T03:55:36;97599.69;;;4.72;97.23
52591;BME280;38483;42.620;25.394;2024-02-21T03:58:56;97603.94;;;4.72;97.72
52591;BME280;38483;42.620;25.394;2024-02-21T04:02:17;97610.75;;;4.74;97.89
52591;BME280;38483;42.620;25.394;2024-02-21T04:05:38;97601.16;;;4.88;96.43
52591;BME280;38483;42.620;25.394;2024-02-21T04:08:58;97601.31;;;4.76;96.22
52591;BME280;38483;42.620;25.394;2024-02-21T04:12:19;97602.97;;;4.80;96.96
52591;BME280;38483;42.620;25.394;2024-02-21T04:15:40;97603.81;;;4.82;97.37
52591;BME280;38483;42.620;25.394;2024-02-21T04:19:01;97606.28;;;4.90;96.07
52591;BME280;38483;42.620;25.394;2024-02-21T04:21:49;97607.94;;;4.92;95.87
52591;BME280;38483;42.620;25.394;2024-02-21T04:24:16;97601.88;;;4.98;95.23
52591;BME280;38483;42.620;25.394;2024-02-21T04:26:43;97603.69;;;4.91;95.92
52591;BME280;38483;42.620;25.394;2024-02-21T04:29:10;97603.69;;;4.91;95.49
52591;BME280;38483;42.620;25.394;2024-02-21T04:31:38;97607.03;;;4.95;95.04
52591;BME280;38483;42.620;25.394;2024-02-21T04:34:06;97609.06;;;4.75;95.29
52591;BME280;38483;42.620;25.394;2024-02-21T04:36:33;97601.47;;;4.67;96.05
52591;BME280;38483;42.620;25.394;2024-02-21T04:39:00;97598.22;;;4.55;96.43
52591;BME280;38483;42.620;25.394;2024-02-21T04:41:27;97611.09;;;4.50;97.07
52591;BME280;38483;42.620;25.394;2024-02-21T04:43:54;97610.28;;;4.45;97.37
52591;BME280;38483;42.620;25.394;2024-02-21T04:46:21;97605.31;;;4.33;98.17
52591;BME280;38483;42.620;25.394;2024-02-21T04:48:48;97600.25;;;4.29;98.85
52591;BME280;38483;42.620;25.394;2024-02-21T04:51:15;97610.28;;;4.45;98.82
52591;BME280;38483;42.620;25.394;2024-02-21T04:53:42;97608.50;;;4.53;97.92
52591;BME280;38483;42.620;25.394;2024-02-21T04:56:10;97607.81;;;4.41;97.50
52591;BME280;38483;42.620;25.394;2024-02-21T04:58:40;97610.38;;;4.39;98.43
52591;BME280;38483;42.620;25.394;2024-02-21T05:01:07;97605.25;;;4.39;98.08
52591;BME280;38483;42.620;25.394;2024-02-21T05:03:35;97608.59;;;4.46;96.71
52591;BME280;38483;42.620;25.394;2024-02-21T05:06:02;97626.47;;;4.53;96.48
52591;BME280;38483;42.620;25.394;2024-02-21T05:08:29;97624.72;;;4.55;96.83
52591;BME280;38483;42.620;25.394;2024-02-21T05:10:56;97628.97;;;4.56;95.51
52591;BME280;38483;42.620;25.394;2024-02-21T05:13:23;97630.72;;;4.54;96.71
52591;BME280;38483;42.620;25.394;2024-02-21T05:15:50;97632.41;;;4.54;96.92
52591;BME280;38483;42.620;25.394;2024-02-21T05:18:17;97632.34;;;4.61;96.09
52591;BME280;38483;42.620;25.394;2024-02-21T05:20:46;97642.63;;;4.58;96.75
52591;BME280;38483;42.620;25.394;2024-02-21T05:23:13;97636.56;;;4.65;96.31
52591;BME280;38483;42.620;25.394;2024-02-21T05:25:40;97641.72;;;4.62;96.23
52591;BME280;38483;42.620;25.394;2024-02-21T05:28:07;97646.00;;;4.63;95.42
52591;BME280;38483;42.620;25.394;2024-02-21T05:30:34;97641.69;;;4.64;95.86
52591;BME280;38483;42.620;25.394;2024-02-21T05:33:05;97652.63;;;4.78;95.80
52591;BME280;38483;42.620;25.394;2024-02-21T05:35:34;97652.03;;;4.59;94.33
52591;BME280;38483;42.620;25.394;2024-02-21T05:38:01;97654.63;;;4.56;95.34
52591;BME280;38483;42.620;25.394;2024-02-21T05:40:33;97659.91;;;4.41;95.73
52591;BME280;38483;42.620;25.394;2024-02-21T05:43:00;97661.72;;;4.36;96.31
52591;BME280;38483;42.620;25.394;2024-02-21T05:45:27;97658.25;;;4.40;96.67
52591;BME280;38483;42.620;25.394;2024-02-21T05:47:54;97666.59;;;4.57;95.90
52591;BME280;38483;42.620;25.394;2024-02-21T05:50:21;97667.63;;;4.41;96.22
52591;BME280;38483;42.620;25.394;2024-02-21T05:52:54;97673.53;;;4.46;96.10
52591;BME280;38483;42.620;25.394;2024-02-21T05:55:22;97663.31;;;4.43;96.49
52591;BME280;38483;42.620;25.394;2024-02-21T05:57:53;97679.19;;;4.74;96.12
52591;BME280;38483;42.620;25.394;2024-02-21T06:00:20;97675.59;;;4.87;95.31
52591;BME280;38483;42.620;25.394;2024-02-21T06:02:47;97682.97;;;5.10;94.40
52591;BME280;38483;42.620;25.394;2024-02-21T06:05:14;97681.53;;;4.92;93.90
52591;BME280;38483;42.620;25.394;2024-02-21T06:07:41;97682.19;;;5.06;93.22
52591;BME280;38483;42.620;25.394;2024-02-21T06:10:09;97690.59;;;5.17;93.41
52591;BME280;38483;42.620;25.394;2024-02-21T06:12:36;97637.03;;;4.91;93.18
52591;BME280;38483;42.620;25.394;2024-02-21T06:15:03;97690.31;;;5.35;93.40
52591;BME280;38483;42.620;25.394;2024-02-21T06:17:31;97699.53;;;5.47;92.87
52591;BME280;38483;42.620;25.394;2024-02-21T06:19:58;97692.88;;;5.34;93.15
52591;BME280;38483;42.620;25.394;2024-02-21T06:22:25;97692.06;;;5.33;91.78
52591;BME280;38483;42.620;25.394;2024-02-21T06:24:52;97682.78;;;5.22;92.92
52591;BME280;38483;42.620;25.394;2024-02-21T06:27:21;97686.28;;;5.18;93.54
52591;BME280;38483;42.620;25.394;2024-02-21T06:29:48;97701.50;;;5.30;93.86
52591;BME280;38483;42.620;25.394;2024-02-21T06:32:15;97707.41;;;5.36;93.37
52591;BME280;38483;42.620;25.394;2024-02-21T06:34:42;97696.41;;;5.28;93.22
52591;BME280;38483;42.620;25.394;2024-02-21T06:37:09;97696.69;;;5.09;92.95
52591;BME280;38483;42.620;25.394;2024-02-21T06:39:37;97706.94;;;5.10;93.67
52591;BME280;38483;42.620;25.394;2024-02-21T06:42:04;97697.31;;;5.24;94.76
52591;BME280;38483;42.620;25.394;2024-02-21T06:44:31;97692.88;;;5.34;93.85
52591;BME280;38483;42.620;25.394;2024-02-21T06:47:03;97708.13;;;5.44;93.60
52591;BME280;38483;42.620;25.394;2024-02-21T06:49:30;97707.84;;;5.64;92.94
52591;BME280;38483;42.620;25.394;2024-02-21T06:51:57;97693.28;;;5.64;91.94
52591;BME280;38483;42.620;25.394;2024-02-21T06:54:24;97709.50;;;5.68;91.43
52591;BME280;38483;42.620;25.394;2024-02-21T06:56:52;97703.44;;;5.72;91.24
52591;BME280;38483;42.620;25.394;2024-02-21T06:59:19;97702.81;;;5.58;92.33
52591;BME280;38483;42.620;25.394;2024-02-21T07:01:48;97714.72;;;5.62;91.67
52591;BME280;38483;42.620;25.394;2024-02-21T07:04:15;97708.91;;;5.51;92.19
52591;BME280;38483;42.620;25.394;2024-02-21T07:06:43;97711.44;;;5.54;92.17
52591;BME280;38483;42.620;25.394;2024-02-21T07:09:10;97706.31;;;5.51;92.85
52591;BME280;38483;42.620;25.394;2024-02-21T07:11:37;97671.78;;;5.15;92.35
52591;BME280;38483;42.620;25.394;2024-02-21T07:14:04;97706.44;;;5.45;93.08
52591;BME280;38483;42.620;25.394;2024-02-21T07:16:31;97707.09;;;5.57;92.46
52591;BME280;38483;42.620;25.394;2024-02-21T07:19:00;97675.72;;;5.37;92.45
52591;BME280;38483;42.620;25.394;2024-02-21T07:21:27;97709.88;;;5.44;92.54
52591;BME280;38483;42.620;25.394;2024-02-21T07:23:54;97704.72;;;5.45;93.07
52591;BME280;38483;42.620;25.394;2024-02-21T07:26:21;97698.72;;;5.45;92.67
52591;BME280;38483;42.620;25.394;2024-02-21T07:28:49;97690.16;;;5.46;92.00
52591;BME280;38483;42.620;25.394;2024-02-21T07:31:16;97679.84;;;5.47;92.92
52591;BME280;38483;42.620;25.394;2024-02-21T07:33:43;97689.03;;;5.62;92.42
52591;BME280;38483;42.620;25.394;2024-02-21T07:36:11;97682.03;;;5.71;91.91
52591;BME280;38483;42.620;25.394;2024-02-21T07:38:38;97694.66;;;5.87;90.87
52591;BME280;38483;42.620;25.394;2024-02-21T07:41:05;97703.88;;;5.98;90.27
52591;BME280;38483;42.620;25.394;2024-02-21T07:43:33;97697.06;;;5.97;89.60
52591;BME280;38483;42.620;25.394;2024-02-21T07:46:00;97657.59;;;5.98;89.63
52591;BME280;38483;42.620;25.394;2024-02-21T07:48:27;97713.16;;;6.52;87.64
52591;BME280;38483;42.620;25.394;2024-02-21T07:50:57;97700.31;;;6.52;86.99
52591;BME280;38483;42.620;25.394;2024-02-21T07:53:24;97690.25;;;6.39;87.53
52591;BME280;38483;42.620;25.394;2024-02-21T07:55:51;97693.19;;;6.65;86.34
52591;BME280;38483;42.620;25.394;2024-02-21T07:58:18;97636.28;;;6.37;85.55
52591;BME280;38483;42.620;25.394;2024-02-21T08:00:45;97688.06;;;6.65;85.84
52591;BME280;38483;42.620;25.394;2024-02-21T08:03:12;97688.84;;;6.69;86.57
52591;BME280;38483;42.620;25.394;2024-02-21T08:05:40;97699.25;;;7.04;86.57
52591;BME280;38483;42.620;25.394;2024-02-21T08:08:07;97695.53;;;7.17;84.26
52591;BME280;38483;42.620;25.394;2024-02-21T08:10:35;97694.75;;;7.13;84.20
52591;BME280;38483;42.620;25.394;2024-02-21T08:13:02;97696.34;;;7.19;85.02
52591;BME280;38483;42.620;25.394;2024-02-21T08:15:29;97678.28;;;7.20;84.64
52591;BME280;38483;42.620;25.394;2024-02-21T08:17:56;97696.78;;;7.37;84.12
52591;BME280;38483;42.620;25.394;2024-02-21T08:20:27;97688.13;;;7.40;83.12
52591;BME280;38483;42.620;25.394;2024-02-21T08:22:54;97695.34;;;7.61;83.39
52591;BME280;38483;42.620;25.394;2024-02-21T08:25:22;97689.44;;;7.93;81.81
52591;BME280;38483;42.620;25.394;2024-02-21T08:27:49;97693.22;;;7.78;81.42
52591;BME280;38483;42.620;25.394;2024-02-21T08:30:18;97697.88;;;7.99;80.54
52591;BME280;38483;42.620;25.394;2024-02-21T08:32:45;97692.25;;;8.17;80.14
52591;BME280;38483;42.620;25.394;2024-02-21T08:35:12;97696.09;;;8.01;80.08
52591;BME280;38483;42.620;25.394;2024-02-21T08:37:39;97695.66;;;7.84;80.41
52591;BME280;38483;42.620;25.394;2024-02-21T08:40:07;97689.00;;;8.09;79.55
52591;BME280;38483;42.620;25.394;2024-02-21T08:42:36;97687.66;;;8.29;79.50
52591;BME280;38483;42.620;25.394;2024-02-21T08:45:03;97694.72;;;8.20;78.00
52591;BME280;38483;42.620;25.394;2024-02-21T08:47:31;97695.56;;;8.21;78.37
52591;BME280;38483;42.620;25.394;2024-02-21T08:49:58;97695.16;;;8.38;77.13
52591;BME280;38483;42.620;25.394;2024-02-21T08:52:31;97691.84;;;8.33;77.15
52591;BME280;38483;42.620;25.394;2024-02-21T08:54:58;97688.50;;;8.61;76.18
52591;BME280;38483;42.620;25.394;2024-02-21T08:57:25;97692.84;;;8.90;76.38
52591;BME280;38483;42.620;25.394;2024-02-21T08:59:52;97689.44;;;9.17;74.38
52591;BME280;38483;42.620;25.394;2024-02-21T09:02:19;97683.50;;;9.43;74.09
52591;BME280;38483;42.620;25.394;2024-02-21T09:04:46;97695.56;;;9.70;72.88
52591;BME280;38483;42.620;25.394;2024-02-21T09:07:14;97703.78;;;9.55;72.77
52591;BME280;38483;42.620;25.394;2024-02-21T09:09:41;97702.88;;;9.83;72.39
52591;BME280;38483;42.620;25.394;2024-02-21T09:12:08;97700.28;;;9.83;72.08
52591;BME280;38483;42.620;25.394;2024-02-21T09:14:37;97688.53;;;10.00;71.25
52591;BME280;38483;42.620;25.394;2024-02-21T09:17:07;97693.41;;;10.09;70.55
52591;BME280;38483;42.620;25.394;2024-02-21T09:19:35;97691.06;;;9.75;70.95
52591;BME280;38483;42.620;25.394;2024-02-21T09:22:02;97687.84;;;9.68;72.09
52591;BME280;38483;42.620;25.394;2024-02-21T09:24:30;97689.13;;;9.81;71.74
52591;BME280;38483;42.620;25.394;2024-02-21T09:26:57;97684.63;;;10.14;70.48
52591;BME280;38483;42.620;25.394;2024-02-21T09:29:24;97677.19;;;10.30;69.84
52591;BME280;38483;42.620;25.394;2024-02-21T09:31:53;97673.91;;;10.49;69.25
52591;BME280;38483;42.620;25.394;2024-02-21T09:34:21;97675.88;;;10.66;68.40
52591;BME280;38483;42.620;25.394;2024-02-21T09:36:49;97653.03;;;10.77;68.64
52591;BME280;38483;42.620;25.394;2024-02-21T09:39:16;97661.81;;;10.73;67.88
52591;BME280;38483;42.620;25.394;2024-02-21T09:41:50;97671.38;;;10.94;67.44
52591;BME280;38483;42.620;25.394;2024-02-21T09:44:19;97666.88;;;10.99;66.20
52591;BME280;38483;42.620;25.394;2024-02-21T09:47:22;97669.38;;;11.02;65.40
52591;BME280;38483;42.620;25.394;2024-02-21T09:49:51;97666.19;;;10.94;64.24
52591;BME280;38483;42.620;25.394;2024-02-21T09:52:19;97674.97;;;11.13;64.64
52591;BME280;38483;42.620;25.394;2024-02-21T09:54:47;97671.28;;;11.20;62.70
52591;BME280;38483;42.620;25.394;2024-02-21T09:57:15;97656.44;;;11.24;61.69
52591;BME280;38483;42.620;25.394;2024-02-21T09:59:43;97654.28;;;11.35;61.85
52591;BME280;38483;42.620;25.394;2024-02-21T10:02:11;97661.25;;;11.55;60.98
52591;BME280;38483;42.620;25.394;2024-02-21T10:04:42;97658.66;;;11.55;58.59
52591;BME280;38483;42.620;25.394;2024-02-21T10:07:09;97641.91;;;11.63;58.21
52591;BME280;38483;42.620;25.394;2024-02-21T10:09:36;97653.72;;;11.92;57.48
52591;BME280;38483;42.620;25.394;2024-02-21T10:12:10;97641.78;;;12.08;56.31
52591;BME280;38483;42.620;25.394;2024-02-21T10:14:39;97643.06;;;11.98;58.46
52591;BME280;38483;42.620;25.394;2024-02-21T10:17:07;97638.19;;;11.70;59.88
52591;BME280;38483;42.620;25.394;2024-02-21T10:19:38;97630.66;;;11.63;58.31
52591;BME280;38483;42.620;25.394;2024-02-21T10:22:08;97618.72;;;11.59;56.25
52591;BME280;38483;42.620;25.394;2024-02-21T10:24:37;97622.66;;;11.47;56.31
52591;BME280;38483;42.620;25.394;2024-02-21T10:27:13;97557.16;;;11.00;55.87
52591;BME280;38483;42.620;25.394;2024-02-21T10:29:40;97616.09;;;11.38;54.12
52591;BME280;38483;42.620;25.394;2024-02-21T10:32:12;97611.00;;;11.35;53.65
52591;BME280;38483;42.620;25.394;2024-02-21T10:34:41;97614.06;;;11.25;53.12
52591;BME280;38483;42.620;25.394;2024-02-21T10:37:10;97595.94;;;11.23;53.83
52591;BME280;38483;42.620;25.394;2024-02-21T10:39:39;97605.03;;;11.33;52.68
52591;BME280;38483;42.620;25.394;2024-02-21T10:42:07;97587.22;;;11.26;54.01
52591;BME280;38483;42.620;25.394;2024-02-21T10:44:38;97590.59;;;11.28;54.42
52591;BME280;38483;42.620;25.394;2024-02-21T10:47:11;97586.59;;;11.19;53.39
52591;BME280;38483;42.620;25.394;2024-02-21T10:49:41;97596.09;;;11.20;53.00
52591;BME280;38483;42.620;25.394;2024-02-21T10:52:14;97588.72;;;11.10;52.18
52591;BME280;38483;42.620;25.394;2024-02-21T10:55:02;97571.00;;;10.99;52.46
52591;BME280;38483;42.620;25.394;2024-02-21T10:57:31;97582.88;;;11.05;54.35
52591;BME280;38483;42.620;25.394;2024-02-21T10:59:59;97581.56;;;11.16;53.48
52591;BME280;38483;42.620;25.394;2024-02-21T11:02:28;97576.63;;;11.10;52.67
52591;BME280;38483;42.620;25.394;2024-02-21T11:04:58;97579.44;;;11.26;52.30
52591;BME280;38483;42.620;25.394;2024-02-21T11:07:26;97577.66;;;11.06;52.58
52591;BME280;38483;42.620;25.394;2024-02-21T11:09:54;97567.38;;;11.03;53.70
52591;BME280;38483;42.620;25.394;2024-02-21T11:12:24;97582.59;;;11.12;54.61
52591;BME280;38483;42.620;25.394;2024-02-21T11:15:02;97567.28;;;11.06;55.92
52591;BME280;38483;42.620;25.394;2024-02-21T11:17:31;97575.50;;;10.94;56.26
52591;BME280;38483;42.620;25.394;2024-02-21T11:19:58;97576.75;;;10.84;55.13
52591;BME280;38483;42.620;25.394;2024-02-21T11:22:27;97574.38;;;10.80;54.68
52591;BME280;38483;42.620;25.394;2024-02-21T11:25:08;97563.97;;;10.58;55.57
52591;BME280;38483;42.620;25.394;2024-02-21T11:27:38;97559.97;;;10.49;56.34
52591;BME280;38483;42.620;25.394;2024-02-21T11:30:06;97568.75;;;10.69;54.65
52591;BME280;38483;42.620;25.394;2024-02-21T11:32:33;97567.34;;;10.60;54.63
52591;BME280;38483;42.620;25.394;2024-02-21T11:35:01;97564.56;;;10.64;53.57
52591;BME280;38483;42.620;25.394;2024-02-21T11:37:36;97564.44;;;10.68;53.77
52591;BME280;38483;42.620;25.394;2024-02-21T11:40:07;97557.28;;;10.74;54.47
52591;BME280;38483;42.620;25.394;2024-02-21T11:42:39;97555.88;;;10.65;53.22
52591;BME280;38483;42.620;25.394;2024-02-21T11:45:07;97505.94;;;10.40;55.96
52591;BME280;38483;42.620;25.394;2024-02-21T11:47:36;97561.34;;;11.03;55.26
52591;BME280;38483;42.620;25.394;2024-02-21T11:50:10;97554.22;;;10.86;56.29
52591;BME280;38483;42.620;25.394;2024-02-21T11:52:39;97553.56;;;10.81;58.17
52591;BME280;38483;42.620;25.394;2024-02-21T11:55:06;97551.31;;;10.72;58.48
52591;BME280;38483;42.620;25.394;2024-02-21T11:57:39;97526.94;;;10.99;55.88
52591;BME280;38483;42.620;25.394;2024-02-21T12:00:16;97549.72;;;10.91;53.29
52591;BME280;38483;42.620;25.394;2024-02-21T12:02:44;97551.56;;;10.66;54.68
52591;BME280;38483;42.620;25.394;2024-02-21T12:05:13;97541.34;;;10.63;54.02
52591;BME280;38483;42.620;25.394;2024-02-21T12:07:41;97545.28;;;10.50;55.28
52591;BME280;38483;42.620;25.394;2024-02-21T12:10:09;97546.13;;;10.50;55.27
52591;BME280;38483;42.620;25.394;2024-02-21T12:12:38;97546.94;;;10.51;54.04
52591;BME280;38483;42.620;25.394;2024-02-21T12:15:07;97533.28;;;10.24;54.17
52591;BME280;38483;42.620;25.394;2024-02-21T12:17:39;97542.47;;;10.33;54.42
52591;BME280;38483;42.620;25.394;2024-02-21T12:20:07;97538.97;;;10.34;55.20
52591;BME280;38483;42.620;25.394;2024-02-21T12:22:38;97536.59;;;10.51;55.49
52591;BME280;38483;42.620;25.394;2024-02-21T12:25:18;97537.81;;;10.64;55.54
52591;BME280;38483;42.620;25.394;2024-02-21T12:27:46;97531.72;;;10.43;54.07
52591;BME280;38483;42.620;25.394;2024-02-21T12:30:14;97536.03;;;10.66;53.65
52591;BME280;38483;42.620;25.394;2024-02-21T12:32:41;97542.28;;;10.60;54.68
52591;BME280;38483;42.620;25.394;2024-02-21T12:35:08;97528.19;;;10.68;53.92
52591;BME280;38483;42.620;25.394;2024-02-21T12:37:36;97533.97;;;10.74;53.90
52591;BME280;38483;42.620;25.394;2024-02-21T12:40:06;97527.47;;;10.64;54.78
52591;BME280;38483;42.620;25.394;2024-02-21T12:42:34;97535.53;;;10.56;54.92
52591;BME280;38483;42.620;25.394;2024-02-21T12:45:02;97533.22;;;10.49;55.19
52591;BME280;38483;42.620;25.394;2024-02-21T12:47:30;97526.47;;;10.45;55.14
52591;BME280;38483;42.620;25.394;2024-02-21T12:49:58;97533.00;;;10.55;55.13
52591;BME280;38483;42.620;25.394;2024-02-21T12:52:25;97528.41;;;10.40;55.26
52591;BME280;38483;42.620;25.394;2024-02-21T12:54:52;97525.03;;;10.38;54.20
52591;BME280;38483;42.620;25.394;2024-02-21T12:57:23;97526.50;;;10.22;54.50
52591;BME280;38483;42.620;25.394;2024-02-21T12:59:54;97517.41;;;10.33;54.79
52591;BME280;38483;42.620;25.394;2024-02-21T13:02:21;97521.72;;;10.34;54.83
52591;BME280;38483;42.620;25.394;2024-02-21T13:04:48;97521.50;;;10.39;54.26
52591;BME280;38483;42.620;25.394;2024-02-21T13:07:16;97523.94;;;10.43;54.63
52591;BME280;38483;42.620;25.394;2024-02-21T13:09:43;97530.06;;;10.41;53.46
52591;BME280;38483;42.620;25.394;2024-02-21T13:12:10;97507.53;;;10.44;52.86
52591;BME280;38483;42.620;25.394;2024-02-21T13:14:38;97517.63;;;10.74;52.17
52591;BME280;38483;42.620;25.394;2024-02-21T13:17:06;97519.22;;;10.76;52.59
52591;BME280;38483;42.620;25.394;2024-02-21T13:19:33;97505.59;;;10.93;52.00
52591;BME280;38483;42.620;25.394;2024-02-21T13:22:01;97509.81;;;11.17;51.62
52591;BME280;38483;42.620;25.394;2024-02-21T13:24:30;97500.91;;;11.02;51.95
52591;BME280;38483;42.620;25.394;2024-02-21T13:26:58;97499.81;;;11.08;51.29
52591;BME280;38483;42.620;25.394;2024-02-21T13:29:25;97492.81;;;11.10;50.57
52591;BME280;38483;42.620;25.394;2024-02-21T13:31:52;97498.19;;;11.05;51.80
52591;BME280;38483;42.620;25.394;2024-02-21T13:34:19;97500.09;;;11.22;51.38
52591;BME280;38483;42.620;25.394;2024-02-21T13:36:46;97488.63;;;11.27;50.66
52591;BME280;38483;42.620;25.394;2024-02-21T13:39:13;97493.00;;;11.27;51.23
52591;BME280;38483;42.620;25.394;2024-02-21T13:41:43;97493.69;;;11.10;51.05
52591;BME280;38483;42.620;25.394;2024-02-21T13:44:11;97480.19;;;10.81;50.59
52591;BME280;38483;42.620;25.394;2024-02-21T13:46:39;97491.88;;;10.91;50.32
52591;BME280;38483;42.620;25.394;2024-02-21T13:49:07;97498.31;;;11.02;50.26
52591;BME280;38483;42.620;25.394;2024-02-21T13:51:35;97494.34;;;10.94;49.80
52591;BME280;38483;42.620;25.394;2024-02-21T13:54:05;97482.72;;;10.82;50.37
52591;BME280;38483;42.620;25.394;2024-02-21T13:56:32;97487.72;;;11.08;50.30
52591;BME280;38483;42.620;25.394;2024-02-21T13:58:59;97492.25;;;11.23;50.18
52591;BME280;38483;42.620;25.394;2024-02-21T14:01:27;97500.16;;;11.20;50.77
52591;BME280;38483;42.620;25.394;2024-02-21T14:04:03;97487.13;;;11.22;50.75
52591;BME280;38483;42.620;25.394;2024-02-21T14:06:31;97492.00;;;11.29;50.83
52591;BME280;38483;42.620;25.394;2024-02-21T14:08:58;97491.63;;;11.38;49.61
52591;BME280;38483;42.620;25.394;2024-02-21T14:11:25;97489.91;;;11.17;49.49